sensor_id;sensor_type;location;lat;lon;timestamp;pressure;altitude;pressure_sealevel;temperature;humidity
54556;BME280;57291;37.520;15.106;2023-01-27T00:00:49;100070.41;;;6.74;75.06
54556;BME280;57291;37.520;15.106;2023-01-27T00:03:17;100074.50;;;6.71;75.26
54556;BME280;57291;37.520;15.106;2023-01-27T00:05:45;100075.06;;;6.68;75.67
54556;BME280;57291;37.520;15.106;2023-01-27T00:08:12;100071.22;;;6.74;75.61
54556;BME280;57291;37.520;15.106;2023-01-27T00:10:40;100076.00;;;6.82;75.07
54556;BME280;57291;37.520;15.106;2023-01-27T00:13:11;100066.00;;;6.83;74.67
54556;BME280;57291;37.520;15.106;2023-01-27T00:15:54;100068.66;;;6.88;74.69
54556;BME280;57291;37.520;15.106;2023-01-27T00:18:21;100062.44;;;6.88;74.10
54556;BME280;57291;37.520;15.106;2023-01-27T00:20:49;100060.31;;;6.85;74.33
54556;BME280;57291;37.520;15.106;2023-01-27T00:23:35;100058.47;;;6.80;74.40
54556;BME280;57291;37.520;15.106;2023-01-27T00:26:21;100056.88;;;6.79;74.71
54556;BME280;57291;37.520;15.106;2023-01-27T00:28:48;100058.47;;;6.80;74.55
54556;BME280;57291;37.520;15.106;2023-01-27T00:31:17;100047.44;;;6.76;74.53
54556;BME280;57291;37.520;15.106;2023-01-27T00:34:03;100049.88;;;6.78;74.56
54556;BME280;57291;37.520;15.106;2023-01-27T00:36:40;100051.16;;;6.80;74.38
54556;BME280;57291;37.520;15.106;2023-01-27T00:39:09;100048.53;;;6.75;74.37
54556;BME280;57291;37.520;15.106;2023-01-27T00:41:38;100049.34;;;6.76;74.18
54556;BME280;57291;37.520;15.106;2023-01-27T00:44:06;100039.63;;;6.75;74.44
54556;BME280;57291;37.520;15.106;2023-01-27T00:46:40;100047.19;;;6.73;74.31
54556;BME280;57291;37.520;15.106;2023-01-27T00:49:09;100049.91;;;6.73;74.60
54556;BME280;57291;37.520;15.106;2023-01-27T00:51:36;100041.03;;;6.67;75.04
54556;BME280;57291;37.520;15.106;2023-01-27T00:54:04;100033.56;;;6.59;75.76
54556;BME280;57291;37.520;15.106;2023-01-27T00:56:31;100040.34;;;6.56;75.87
54556;BME280;57291;37.520;15.106;2023-01-27T00:58:58;100038.19;;;6.58;75.69
54556;BME280;57291;37.520;15.106;2023-01-27T01:01:26;100036.78;;;6.61;75.68
54556;BME280;57291;37.520;15.106;2023-01-27T01:03:54;100024.69;;;6.58;75.64
54556;BME280;57291;37.520;15.106;2023-01-27T01:06:21;100030.34;;;6.57;75.66
54556;BME280;57291;37.520;15.106;2023-01-27T01:08:48;100029.25;;;6.58;75.91
54556;BME280;57291;37.520;15.106;2023-01-27T01:11:19;100026.38;;;6.49;76.11
54556;BME280;57291;37.520;15.106;2023-01-27T01:13:46;100020.53;;;6.37;76.61
54556;BME280;57291;37.520;15.106;2023-01-27T01:16:16;100012.53;;;6.27;77.50
54556;BME280;57291;37.520;15.106;2023-01-27T01:18:44;100011.84;;;6.16;78.08
54556;BME280;57291;37.520;15.106;2023-01-27T01:21:12;100011.38;;;6.09;78.45
54556;BME280;57291;37.520;15.106;2023-01-27T01:23:43;100004.91;;;6.05;78.82
54556;BME280;57291;37.520;15.106;2023-01-27T01:26:12;100010.03;;;6.06;78.83
54556;BME280;57291;37.520;15.106;2023-01-27T01:28:40;100007.56;;;6.10;79.64
54556;BME280;57291;37.520;15.106;2023-01-27T01:31:09;100015.13;;;6.08;79.27
54556;BME280;57291;37.520;15.106;2023-01-27T01:33:37;100014.56;;;6.11;79.64
54556;BME280;57291;37.520;15.106;2023-01-27T01:38:32;100015.03;;;6.18;79.42
54556;BME280;57291;37.520;15.106;2023-01-27T01:40:59;100006.59;;;6.30;78.15
54556;BME280;57291;37.520;15.106;2023-01-27T01:43:26;100011.69;;;6.31;78.30
54556;BME280;57291;37.520;15.106;2023-01-27T01:46:00;100002.78;;;6.31;78.43
54556;BME280;57291;37.520;15.106;2023-01-27T01:51:19;99996.66;;;6.25;78.79
54556;BME280;57291;37.520;15.106;2023-01-27T01:56:23;100000.38;;;6.29;79.12
54556;BME280;57291;37.520;15.106;2023-01-27T01:58:54;100004.41;;;6.32;78.98
54556;BME280;57291;37.520;15.106;2023-01-27T02:01:23;99999.25;;;6.36;79.09
54556;BME280;57291;37.520;15.106;2023-01-27T02:03:55;99995.47;;;6.37;78.78
54556;BME280;57291;37.520;15.106;2023-01-27T02:06:25;99993.53;;;6.42;78.47
54556;BME280;57291;37.520;15.106;2023-01-27T02:08:53;99995.88;;;6.49;78.35
54556;BME280;57291;37.520;15.106;2023-01-27T02:11:21;99998.00;;;6.52;78.37
54556;BME280;57291;37.520;15.106;2023-01-27T02:13:48;100000.88;;;6.61;78.11
54556;BME280;57291;37.520;15.106;2023-01-27T02:16:15;99991.94;;;6.65;77.74
54556;BME280;57291;37.520;15.106;2023-01-27T02:18:42;99989.97;;;6.71;77.51
54556;BME280;57291;37.520;15.106;2023-01-27T02:21:10;99988.03;;;6.76;77.18
54556;BME280;57291;37.520;15.106;2023-01-27T02:23:59;99982.91;;;6.75;76.95
54556;BME280;57291;37.520;15.106;2023-01-27T02:26:31;99978.31;;;6.75;77.06
54556;BME280;57291;37.520;15.106;2023-01-27T02:29:03;99975.66;;;6.70;77.40
54556;BME280;57291;37.520;15.106;2023-01-27T02:31:31;99975.66;;;6.70;77.13
54556;BME280;57291;37.520;15.106;2023-01-27T02:34:02;99970.84;;;6.67;77.18
54556;BME280;57291;37.520;15.106;2023-01-27T02:36:33;99969.81;;;6.63;77.53
54556;BME280;57291;37.520;15.106;2023-01-27T02:39:02;99977.09;;;6.63;77.58
54556;BME280;57291;37.520;15.106;2023-01-27T02:41:40;99972.50;;;6.63;77.12
54556;BME280;57291;37.520;15.106;2023-01-27T02:44:10;99967.91;;;6.64;77.93
54556;BME280;57291;37.520;15.106;2023-01-27T02:46:38;99968.25;;;6.57;77.81
54556;BME280;57291;37.520;15.106;2023-01-27T02:49:06;99972.53;;;6.58;77.85
54556;BME280;57291;37.520;15.106;2023-01-27T02:51:34;99976.66;;;6.55;78.38
54556;BME280;57291;37.520;15.106;2023-01-27T02:54:01;99971.28;;;6.50;78.30
54556;BME280;57291;37.520;15.106;2023-01-27T02:56:28;99976.75;;;6.45;78.91
54556;BME280;57291;37.520;15.106;2023-01-27T02:58:56;99964.66;;;6.38;78.99
54556;BME280;57291;37.520;15.106;2023-01-27T03:01:32;99966.91;;;6.30;79.32
54556;BME280;57291;37.520;15.106;2023-01-27T03:04:00;99961.03;;;6.23;79.94
54556;BME280;57291;37.520;15.106;2023-01-27T03:06:28;99970.50;;;6.21;80.03
54556;BME280;57291;37.520;15.106;2023-01-27T03:08:55;99961.06;;;6.18;80.49
54556;BME280;57291;37.520;15.106;2023-01-27T03:11:22;99959.53;;;6.12;80.49
54556;BME280;57291;37.520;15.106;2023-01-27T03:14:08;99955.28;;;6.06;81.04
54556;BME280;57291;37.520;15.106;2023-01-27T03:16:35;99962.31;;;6.02;80.99
54556;BME280;57291;37.520;15.106;2023-01-27T03:19:21;99960.47;;;5.97;81.52
54556;BME280;57291;37.520;15.106;2023-01-27T03:21:48;99958.56;;;5.98;81.71
54556;BME280;57291;37.520;15.106;2023-01-27T03:24:19;99957.78;;;5.97;82.09
54556;BME280;57291;37.520;15.106;2023-01-27T03:26:47;99947.28;;;5.96;82.35
54556;BME280;57291;37.520;15.106;2023-01-27T03:29:16;99954.50;;;6.00;82.40
54556;BME280;57291;37.520;15.106;2023-01-27T03:32:02;99962.03;;;6.03;82.30
54556;BME280;57291;37.520;15.106;2023-01-27T03:34:30;99952.28;;;6.07;82.02
54556;BME280;57291;37.520;15.106;2023-01-27T03:37:08;99948.78;;;6.07;81.97
54556;BME280;57291;37.520;15.106;2023-01-27T03:39:55;99957.13;;;6.10;81.77
54556;BME280;57291;37.520;15.106;2023-01-27T03:42:40;99968.19;;;6.09;81.82
54556;BME280;57291;37.520;15.106;2023-01-27T03:45:26;99965.50;;;6.09;82.23
54556;BME280;57291;37.520;15.106;2023-01-27T03:48:12;99977.31;;;6.13;81.83
54556;BME280;57291;37.520;15.106;2023-01-27T03:50:39;99968.94;;;6.15;81.87
54556;BME280;57291;37.520;15.106;2023-01-27T03:53:09;99961.66;;;6.15;81.77
54556;BME280;57291;37.520;15.106;2023-01-27T03:55:37;99961.06;;;6.18;81.45
54556;BME280;57291;37.520;15.106;2023-01-27T03:58:16;99955.19;;;6.16;81.52
54556;BME280;57291;37.520;15.106;2023-01-27T04:00:52;99950.91;;;6.10;81.75
54556;BME280;57291;37.520;15.106;2023-01-27T04:03:21;99955.78;;;6.08;81.44
54556;BME280;57291;37.520;15.106;2023-01-27T04:06:16;99952.59;;;6.01;81.88
54556;BME280;57291;37.520;15.106;2023-01-27T04:09:03;99950.25;;;5.94;81.95
54556;BME280;57291;37.520;15.106;2023-01-27T04:11:31;99951.34;;;5.88;82.60
54556;BME280;57291;37.520;15.106;2023-01-27T04:14:17;99955.13;;;5.87;82.75
54556;BME280;57291;37.520;15.106;2023-01-27T04:16:44;99949.75;;;5.82;82.87
54556;BME280;57291;37.520;15.106;2023-01-27T04:19:12;99954.66;;;5.80;83.41
54556;BME280;57291;37.520;15.106;2023-01-27T04:21:40;99956.81;;;5.78;83.03
54556;BME280;57291;37.520;15.106;2023-01-27T04:24:07;99953.09;;;5.74;83.09
54556;BME280;57291;37.520;15.106;2023-01-27T04:26:43;99957.44;;;5.70;83.91
54556;BME280;57291;37.520;15.106;2023-01-27T04:29:12;99959.34;;;5.64;83.70
54556;BME280;57291;37.520;15.106;2023-01-27T04:31:39;99962.59;;;5.61;83.98
54556;BME280;57291;37.520;15.106;2023-01-27T04:34:07;99959.38;;;5.59;84.51
54556;BME280;57291;37.520;15.106;2023-01-27T04:36:34;99956.91;;;5.62;85.04
54556;BME280;57291;37.520;15.106;2023-01-27T04:39:01;99959.34;;;5.64;84.99
54556;BME280;57291;37.520;15.106;2023-01-27T04:41:28;99966.09;;;5.67;85.08
54556;BME280;57291;37.520;15.106;2023-01-27T04:43:56;99965.22;;;5.71;85.49
54556;BME280;57291;37.520;15.106;2023-01-27T04:46:23;99966.56;;;5.74;85.55
54556;BME280;57291;37.520;15.106;2023-01-27T04:48:50;99962.78;;;5.75;85.62
54556;BME280;57291;37.520;15.106;2023-01-27T04:51:17;99961.16;;;5.74;85.56
54556;BME280;57291;37.520;15.106;2023-01-27T04:53:44;99962.25;;;5.73;85.17
54556;BME280;57291;37.520;15.106;2023-01-27T04:56:32;99964.97;;;5.73;85.43
54556;BME280;57291;37.520;15.106;2023-01-27T04:59:02;99960.13;;;5.70;85.30
54556;BME280;57291;37.520;15.106;2023-01-27T05:01:29;99962.81;;;5.70;85.47
54556;BME280;57291;37.520;15.106;2023-01-27T05:03:57;99964.97;;;5.73;85.99
54556;BME280;57291;37.520;15.106;2023-01-27T05:06:24;99959.84;;;5.71;86.34
54556;BME280;57291;37.520;15.106;2023-01-27T05:08:52;99959.03;;;5.71;86.48
54556;BME280;57291;37.520;15.106;2023-01-27T05:11:19;99956.88;;;5.73;86.20
54556;BME280;57291;37.520;15.106;2023-01-27T05:13:47;99956.88;;;5.73;86.17
54556;BME280;57291;37.520;15.106;2023-01-27T05:16:16;99964.97;;;5.73;86.45
54556;BME280;57291;37.520;15.106;2023-01-27T05:18:45;99961.97;;;5.74;86.35
54556;BME280;57291;37.520;15.106;2023-01-27T05:21:24;99960.38;;;5.73;86.27
54556;BME280;57291;37.520;15.106;2023-01-27T05:23:54;99960.38;;;5.73;86.67
54556;BME280;57291;37.520;15.106;2023-01-27T05:26:25;99966.25;;;5.75;86.70
54556;BME280;57291;37.520;15.106;2023-01-27T05:28:55;99965.19;;;5.76;86.31
54556;BME280;57291;37.520;15.106;2023-01-27T05:31:28;99967.59;;;5.78;86.57
54556;BME280;57291;37.520;15.106;2023-01-27T05:33:58;99964.06;;;5.82;86.49
54556;BME280;57291;37.520;15.106;2023-01-27T05:36:26;99969.94;;;5.90;86.66
54556;BME280;57291;37.520;15.106;2023-01-27T05:38:54;99974.53;;;5.89;86.29
54556;BME280;57291;37.520;15.106;2023-01-27T05:41:22;99976.97;;;5.85;85.86
54556;BME280;57291;37.520;15.106;2023-01-27T05:43:54;99978.06;;;5.84;86.23
54556;BME280;57291;37.520;15.106;2023-01-27T05:46:31;99983.53;;;5.79;86.03
54556;BME280;57291;37.520;15.106;2023-01-27T05:49:01;99984.06;;;5.76;86.28
54556;BME280;57291;37.520;15.106;2023-01-27T05:51:35;99976.53;;;5.73;86.36
54556;BME280;57291;37.520;15.106;2023-01-27T05:54:03;99971.41;;;5.72;86.64
54556;BME280;57291;37.520;15.106;2023-01-27T05:56:30;99980.88;;;5.69;86.82
54556;BME280;57291;37.520;15.106;2023-01-27T05:58:58;99979.25;;;5.68;87.10
54556;BME280;57291;37.520;15.106;2023-01-27T06:01:30;99986.25;;;5.69;86.77
54556;BME280;57291;37.520;15.106;2023-01-27T06:03:58;99983.06;;;5.67;87.10
54556;BME280;57291;37.520;15.106;2023-01-27T06:06:28;99983.31;;;5.71;87.51
54556;BME280;57291;37.520;15.106;2023-01-27T06:08:55;99984.41;;;5.70;87.31
54556;BME280;57291;37.520;15.106;2023-01-27T06:11:23;99989.50;;;5.71;87.31
54556;BME280;57291;37.520;15.106;2023-01-27T06:13:51;99988.94;;;5.74;87.03
54556;BME280;57291;37.520;15.106;2023-01-27T06:16:20;99988.94;;;5.74;87.18
54556;BME280;57291;37.520;15.106;2023-01-27T06:18:48;99988.38;;;5.77;87.36
54556;BME280;57291;37.520;15.106;2023-01-27T06:21:15;99995.84;;;5.85;87.66
54556;BME280;57291;37.520;15.106;2023-01-27T06:23:43;99997.03;;;6.08;88.56
54556;BME280;57291;37.520;15.106;2023-01-27T06:26:15;99994.91;;;6.64;90.47
54556;BME280;57291;37.520;15.106;2023-01-27T06:28:43;99990.56;;;7.11;90.13
54556;BME280;57291;37.520;15.106;2023-01-27T06:31:13;99990.19;;;7.41;86.81
54556;BME280;57291;37.520;15.106;2023-01-27T06:33:41;100000.53;;;7.53;83.60
54556;BME280;57291;37.520;15.106;2023-01-27T06:36:14;99999.75;;;7.52;81.82
54556;BME280;57291;37.520;15.106;2023-01-27T06:38:41;100004.34;;;7.52;81.47
54556;BME280;57291;37.520;15.106;2023-01-27T06:41:09;100009.22;;;7.50;80.77
54556;BME280;57291;37.520;15.106;2023-01-27T06:43:37;100008.44;;;7.49;80.52
54556;BME280;57291;37.520;15.106;2023-01-27T06:46:04;100013.63;;;7.46;80.54
54556;BME280;57291;37.520;15.106;2023-01-27T06:48:32;100006.53;;;7.50;80.37
54556;BME280;57291;37.520;15.106;2023-01-27T06:50:59;100007.78;;;7.58;80.05
54556;BME280;57291;37.520;15.106;2023-01-27T06:53:26;100007.91;;;7.66;80.02
54556;BME280;57291;37.520;15.106;2023-01-27T06:55:58;100006.47;;;7.74;79.35
54556;BME280;57291;37.520;15.106;2023-01-27T06:58:26;100013.31;;;7.85;78.98
54556;BME280;57291;37.520;15.106;2023-01-27T07:00:54;100011.19;;;8.01;78.95
54556;BME280;57291;37.520;15.106;2023-01-27T07:03:22;100013.94;;;8.15;78.23
54556;BME280;57291;37.520;15.106;2023-01-27T07:05:49;100012.31;;;8.33;77.68
54556;BME280;57291;37.520;15.106;2023-01-27T07:08:16;100010.72;;;8.45;76.79
54556;BME280;57291;37.520;15.106;2023-01-27T07:10:43;100012.69;;;8.59;76.34
54556;BME280;57291;37.520;15.106;2023-01-27T07:13:11;100010.78;;;8.73;75.62
54556;BME280;57291;37.520;15.106;2023-01-27T07:15:39;100017.31;;;8.86;75.01
54556;BME280;57291;37.520;15.106;2023-01-27T07:18:06;100021.72;;;8.96;73.84
54556;BME280;57291;37.520;15.106;2023-01-27T07:20:33;100016.09;;;9.06;73.24
54556;BME280;57291;37.520;15.106;2023-01-27T07:23:03;100026.22;;;9.14;72.60
54556;BME280;57291;37.520;15.106;2023-01-27T07:25:32;100028.44;;;9.26;72.69
54556;BME280;57291;37.520;15.106;2023-01-27T07:28:00;100038.66;;;9.43;71.88
54556;BME280;57291;37.520;15.106;2023-01-27T07:30:28;100039.59;;;9.60;72.03
54556;BME280;57291;37.520;15.106;2023-01-27T07:33:02;100046.63;;;9.75;71.95
54556;BME280;57291;37.520;15.106;2023-01-27T07:35:29;100038.75;;;9.88;71.44
54556;BME280;57291;37.520;15.106;2023-01-27T07:37:56;100060.22;;;9.98;70.73
54556;BME280;57291;37.520;15.106;2023-01-27T07:40:24;100056.75;;;10.06;70.10
54556;BME280;57291;37.520;15.106;2023-01-27T07:42:51;100057.97;;;10.14;69.79
54556;BME280;57291;37.520;15.106;2023-01-27T07:45:18;100059.56;;;10.15;69.48
54556;BME280;57291;37.520;15.106;2023-01-27T07:47:45;100068.19;;;10.17;69.27
54556;BME280;57291;37.520;15.106;2023-01-27T07:50:12;100077.63;;;10.19;69.12
54556;BME280;57291;37.520;15.106;2023-01-27T07:52:40;100083.84;;;10.20;68.79
54556;BME280;57291;37.520;15.106;2023-01-27T07:55:07;100076.22;;;10.22;68.67
54556;BME280;57291;37.520;15.106;2023-01-27T07:57:34;100082.66;;;10.26;68.90
54556;BME280;57291;37.520;15.106;2023-01-27T08:00:03;100068.78;;;10.27;68.47
54556;BME280;57291;37.520;15.106;2023-01-27T08:02:37;100080.31;;;10.33;68.42
54556;BME280;57291;37.520;15.106;2023-01-27T08:05:05;100083.41;;;10.40;68.45
54556;BME280;57291;37.520;15.106;2023-01-27T08:07:32;100084.22;;;10.41;68.33
54556;BME280;57291;37.520;15.106;2023-01-27T08:09:59;100092.03;;;10.42;67.20
54556;BME280;57291;37.520;15.106;2023-01-27T08:12:28;100093.16;;;10.41;67.23
54556;BME280;57291;37.520;15.106;2023-01-27T08:14:56;100087.97;;;10.53;67.08
54556;BME280;57291;37.520;15.106;2023-01-27T08:17:23;100101.78;;;10.66;67.08
54556;BME280;57291;37.520;15.106;2023-01-27T08:19:50;100092.88;;;10.74;66.72
54556;BME280;57291;37.520;15.106;2023-01-27T08:22:18;100098.16;;;10.79;65.98
54556;BME280;57291;37.520;15.106;2023-01-27T08:24:48;100092.94;;;10.83;65.41
54556;BME280;57291;37.520;15.106;2023-01-27T08:27:16;100093.41;;;10.85;63.97
54556;BME280;57291;37.520;15.106;2023-01-27T08:29:44;100093.13;;;10.95;63.46
54556;BME280;57291;37.520;15.106;2023-01-27T08:32:12;100089.56;;;10.86;62.63
54556;BME280;57291;37.520;15.106;2023-01-27T08:34:40;100096.03;;;10.98;63.44
54556;BME280;57291;37.520;15.106;2023-01-27T08:37:08;100113.88;;;11.13;63.18
54556;BME280;57291;37.520;15.106;2023-01-27T08:39:35;100108.59;;;11.17;61.65
54556;BME280;57291;37.520;15.106;2023-01-27T08:42:02;100120.97;;;11.32;61.20
54556;BME280;57291;37.520;15.106;2023-01-27T08:44:29;100110.44;;;11.39;60.08
54556;BME280;57291;37.520;15.106;2023-01-27T08:46:56;100110.63;;;11.42;59.63
54556;BME280;57291;37.520;15.106;2023-01-27T08:49:23;100120.09;;;11.54;59.61
54556;BME280;57291;37.520;15.106;2023-01-27T08:51:50;100106.03;;;11.69;59.67
54556;BME280;57291;37.520;15.106;2023-01-27T08:54:17;100113.28;;;11.82;58.95
54556;BME280;57291;37.520;15.106;2023-01-27T08:56:44;100107.56;;;12.01;58.51
54556;BME280;57291;37.520;15.106;2023-01-27T08:59:11;100116.03;;;12.17;57.98
54556;BME280;57291;37.520;15.106;2023-01-27T09:01:38;100123.88;;;12.36;57.23
54556;BME280;57291;37.520;15.106;2023-01-27T09:04:08;100124.34;;;12.47;56.48
54556;BME280;57291;37.520;15.106;2023-01-27T09:06:35;100130.94;;;12.46;55.17
54556;BME280;57291;37.520;15.106;2023-01-27T09:09:02;100126.75;;;12.57;54.69
54556;BME280;57291;37.520;15.106;2023-01-27T09:11:40;100138.09;;;12.76;54.20
54556;BME280;57291;37.520;15.106;2023-01-27T09:14:08;100135.03;;;12.86;53.36
54556;BME280;57291;37.520;15.106;2023-01-27T09:16:36;100135.66;;;13.01;53.48
54556;BME280;57291;37.520;15.106;2023-01-27T09:19:03;100136.53;;;13.31;53.15
54556;BME280;57291;37.520;15.106;2023-01-27T09:21:30;100143.47;;;13.58;52.02
54556;BME280;57291;37.520;15.106;2023-01-27T09:24:01;100135.88;;;13.93;50.64
54556;BME280;57291;37.520;15.106;2023-01-27T09:26:30;100129.47;;;13.89;50.85
54556;BME280;57291;37.520;15.106;2023-01-27T09:29:03;100139.22;;;13.99;50.57
54556;BME280;57291;37.520;15.106;2023-01-27T09:31:30;100141.13;;;13.98;50.77
54556;BME280;57291;37.520;15.106;2023-01-27T09:33:58;100136.78;;;13.97;51.40
54556;BME280;57291;37.520;15.106;2023-01-27T09:36:26;100136.00;;;13.76;50.17
54556;BME280;57291;37.520;15.106;2023-01-27T09:39:00;100143.94;;;13.60;50.35
54556;BME280;57291;37.520;15.106;2023-01-27T09:47:15;100147.34;;;13.57;50.31
54556;BME280;57291;37.520;15.106;2023-01-27T09:53:13;100144.34;;;13.71;48.75
54556;BME280;57291;37.520;15.106;2023-01-27T10:06:33;100135.53;;;13.65;51.63
54556;BME280;57291;37.520;15.106;2023-01-27T10:20:53;100131.47;;;13.80;52.67
54556;BME280;57291;37.520;15.106;2023-01-27T10:26:12;100130.34;;;14.02;51.72
54556;BME280;57291;37.520;15.106;2023-01-27T10:28:49;100133.09;;;14.23;50.39
54556;BME280;57291;37.520;15.106;2023-01-27T10:31:19;100128.56;;;14.06;48.91
54556;BME280;57291;37.520;15.106;2023-01-27T10:33:51;100128.41;;;14.23;48.04
54556;BME280;57291;37.520;15.106;2023-01-27T10:41:58;100122.00;;;14.40;47.66
54556;BME280;57291;37.520;15.106;2023-01-27T10:50:44;100098.44;;;14.69;46.95
54556;BME280;57291;37.520;15.106;2023-01-27T10:53:18;100104.56;;;14.66;46.17
54556;BME280;57291;37.520;15.106;2023-01-27T10:58:46;100105.47;;;14.37;46.98
54556;BME280;57291;37.520;15.106;2023-01-27T11:01:18;100093.94;;;14.52;48.99
54556;BME280;57291;37.520;15.106;2023-01-27T11:06:38;100081.13;;;14.89;47.99
54556;BME280;57291;37.520;15.106;2023-01-27T11:12:00;100087.81;;;14.67;49.99
54556;BME280;57291;37.520;15.106;2023-01-27T11:14:31;100087.69;;;14.64;49.21
54556;BME280;57291;37.520;15.106;2023-01-27T11:17:37;100085.59;;;14.27;49.07
54556;BME280;57291;37.520;15.106;2023-01-27T11:23:05;100086.91;;;13.58;51.50
54556;BME280;57291;37.520;15.106;2023-01-27T11:25:49;100084.34;;;13.32;51.49
54556;BME280;57291;37.520;15.106;2023-01-27T11:28:46;100086.56;;;13.01;53.33
54556;BME280;57291;37.520;15.106;2023-01-27T11:31:36;100079.03;;;12.98;53.21
54556;BME280;57291;37.520;15.106;2023-01-27T11:34:34;100085.63;;;12.88;54.74
54556;BME280;57291;37.520;15.106;2023-01-27T11:39:39;100090.16;;;12.75;56.10
54556;BME280;57291;37.520;15.106;2023-01-27T11:42:07;100075.75;;;12.66;55.81
54556;BME280;57291;37.520;15.106;2023-01-27T11:44:35;100077.03;;;12.60;57.46
54556;BME280;57291;37.520;15.106;2023-01-27T11:47:05;100086.84;;;12.52;59.90
54556;BME280;57291;37.520;15.106;2023-01-27T11:49:36;100082.06;;;12.40;58.07
54556;BME280;57291;37.520;15.106;2023-01-27T11:52:12;100086.06;;;12.34;59.70
54556;BME280;57291;37.520;15.106;2023-01-27T11:54:45;100080.63;;;12.34;60.17
54556;BME280;57291;37.520;15.106;2023-01-27T11:57:18;100081.88;;;12.46;59.76
54556;BME280;57291;37.520;15.106;2023-01-27T11:59:48;100069.19;;;12.58;60.46
54556;BME280;57291;37.520;15.106;2023-01-27T12:02:41;100068.50;;;12.79;59.73
54556;BME280;57291;37.520;15.106;2023-01-27T12:05:17;100072.94;;;12.92;59.62
54556;BME280;57291;37.520;15.106;2023-01-27T12:07:55;100059.50;;;12.78;60.30
54556;BME280;57291;37.520;15.106;2023-01-27T12:13:19;100061.63;;;13.11;59.53
54556;BME280;57291;37.520;15.106;2023-01-27T12:15:49;100062.72;;;13.27;58.34
54556;BME280;57291;37.520;15.106;2023-01-27T12:18:19;100076.19;;;13.24;58.85
54556;BME280;57291;37.520;15.106;2023-01-27T12:20:56;100076.22;;;13.15;58.64
54556;BME280;57291;37.520;15.106;2023-01-27T12:23:28;100076.41;;;13.10;58.50
54556;BME280;57291;37.520;15.106;2023-01-27T12:26:03;100078.13;;;12.76;56.93
54556;BME280;57291;37.520;15.106;2023-01-27T12:28:33;100084.59;;;12.46;57.46
54556;BME280;57291;37.520;15.106;2023-01-27T12:31:17;100083.00;;;12.27;57.91
54556;BME280;57291;37.520;15.106;2023-01-27T12:34:01;100084.78;;;12.23;58.79
54556;BME280;57291;37.520;15.106;2023-01-27T12:36:36;100084.97;;;12.18;58.17
54556;BME280;57291;37.520;15.106;2023-01-27T12:39:05;100080.16;;;12.15;58.76
54556;BME280;57291;37.520;15.106;2023-01-27T12:41:35;100086.91;;;12.17;59.70
54556;BME280;57291;37.520;15.106;2023-01-27T12:44:07;100094.59;;;12.24;60.67
54556;BME280;57291;37.520;15.106;2023-01-27T12:47:00;100083.84;;;12.28;60.63
54556;BME280;57291;37.520;15.106;2023-01-27T12:49:36;100082.84;;;12.24;59.94
54556;BME280;57291;37.520;15.106;2023-01-27T12:52:05;100081.59;;;12.21;59.41
54556;BME280;57291;37.520;15.106;2023-01-27T12:54:35;100078.06;;;12.29;58.42
54556;BME280;57291;37.520;15.106;2023-01-27T12:57:05;100085.25;;;12.42;58.88
54556;BME280;57291;37.520;15.106;2023-01-27T12:59:45;100081.47;;;12.82;57.97
54556;BME280;57291;37.520;15.106;2023-01-27T13:02:22;100086.84;;;13.46;56.08
54556;BME280;57291;37.520;15.106;2023-01-27T13:04:52;100092.09;;;13.51;55.67
54556;BME280;57291;37.520;15.106;2023-01-27T13:07:29;100084.00;;;13.43;53.70
54556;BME280;57291;37.520;15.106;2023-01-27T13:10:00;100088.06;;;13.57;54.06
54556;BME280;57291;37.520;15.106;2023-01-27T13:12:58;100091.28;;;13.80;54.35
54556;BME280;57291;37.520;15.106;2023-01-27T13:15:28;100101.38;;;13.89;53.37
54556;BME280;57291;37.520;15.106;2023-01-27T13:17:58;100097.41;;;13.77;52.30
54556;BME280;57291;37.520;15.106;2023-01-27T13:20:29;100105.59;;;13.56;53.00
54556;BME280;57291;37.520;15.106;2023-01-27T13:23:17;100097.56;;;13.51;52.98
54556;BME280;57291;37.520;15.106;2023-01-27T13:26:04;100097.69;;;13.55;53.68
54556;BME280;57291;37.520;15.106;2023-01-27T13:28:54;100109.75;;;13.83;54.24
54556;BME280;57291;37.520;15.106;2023-01-27T13:34:09;100117.97;;;13.75;54.26
54556;BME280;57291;37.520;15.106;2023-01-27T13:36:51;100121.69;;;13.79;53.73
54556;BME280;57291;37.520;15.106;2023-01-27T13:39:27;100119.81;;;13.62;53.82
54556;BME280;57291;37.520;15.106;2023-01-27T13:42:23;100115.06;;;13.59;54.30
54556;BME280;57291;37.520;15.106;2023-01-27T13:50:14;100123.09;;;13.08;56.03
54556;BME280;57291;37.520;15.106;2023-01-27T13:52:49;100128.56;;;13.08;57.42
54556;BME280;57291;37.520;15.106;2023-01-27T13:55:20;100136.56;;;13.13;57.71
54556;BME280;57291;37.520;15.106;2023-01-27T13:57:53;100136.22;;;13.24;57.52
54556;BME280;57291;37.520;15.106;2023-01-27T14:00:34;100123.50;;;13.36;57.02
54556;BME280;57291;37.520;15.106;2023-01-27T14:11:46;100147.38;;;12.93;59.66
54556;BME280;57291;37.520;15.106;2023-01-27T14:14:42;100151.69;;;13.02;59.76
54556;BME280;57291;37.520;15.106;2023-01-27T14:17:45;100155.06;;;12.99;59.54
54556;BME280;57291;37.520;15.106;2023-01-27T14:20:25;100156.34;;;13.02;60.26
54556;BME280;57291;37.520;15.106;2023-01-27T14:31:38;100147.50;;;13.05;61.81
54556;BME280;57291;37.520;15.106;2023-01-27T14:34:33;100149.59;;;12.99;61.77
54556;BME280;57291;37.520;15.106;2023-01-27T14:37:23;100153.81;;;12.88;63.04
54556;BME280;57291;37.520;15.106;2023-01-27T14:42:38;100158.31;;;12.84;63.43
54556;BME280;57291;37.520;15.106;2023-01-27T14:53:38;100173.56;;;12.07;65.78
54556;BME280;57291;37.520;15.106;2023-01-27T14:56:24;100176.59;;;11.96;67.13
54556;BME280;57291;37.520;15.106;2023-01-27T15:01:57;100191.09;;;11.83;68.47
54556;BME280;57291;37.520;15.106;2023-01-27T15:05:08;100202.16;;;11.78;67.93